sensor_id;sensor_type;location;lat;lon;timestamp;P1;durP1;ratioP1;P2;durP2;ratioP2
71800;SDS011;59647;55.838;37.292;2023-11-21T00:00:19;7.10;;;3.23;;
71800;SDS011;59647;55.838;37.292;2023-11-21T00:02:46;3.37;;;1.97;;
71800;SDS011;59647;55.838;37.292;2023-11-21T00:05:13;9.90;;;3.13;;
71800;SDS011;59647;55.838;37.292;2023-11-21T00:07:41;4.80;;;2.33;;
71800;SDS011;59647;55.838;37.292;2023-11-21T00:10:08;6.57;;;3.03;;
71800;SDS011;59647;55.838;37.292;2023-11-21T00:12:37;6.00;;;2.70;;
71800;SDS011;59647;55.838;37.292;2023-11-21T00:15:03;7.70;;;3.73;;
71800;SDS011;59647;55.838;37.292;2023-11-21T00:17:31;4.80;;;2.30;;
71800;SDS011;59647;55.838;37.292;2023-11-21T00:19:57;6.97;;;2.20;;
71800;SDS011;59647;55.838;37.292;2023-11-21T00:22:23;7.30;;;3.50;;
71800;SDS011;59647;55.838;37.292;2023-11-21T00:24:49;7.50;;;3.80;;
71800;SDS011;59647;55.838;37.292;2023-11-21T00:27:15;5.87;;;2.63;;
71800;SDS011;59647;55.838;37.292;2023-11-21T00:29:41;7.87;;;2.33;;
71800;SDS011;59647;55.838;37.292;2023-11-21T00:32:09;6.50;;;2.87;;
71800;SDS011;59647;55.838;37.292;2023-11-21T00:34:37;7.77;;;3.43;;
71800;SDS011;59647;55.838;37.292;2023-11-21T00:37:02;7.00;;;3.23;;
71800;SDS011;59647;55.838;37.292;2023-11-21T00:39:28;7.03;;;3.13;;
71800;SDS011;59647;55.838;37.292;2023-11-21T00:41:54;9.63;;;3.47;;
71800;SDS011;59647;55.838;37.292;2023-11-21T00:44:20;4.83;;;2.37;;
71800;SDS011;59647;55.838;37.292;2023-11-21T00:46:46;8.97;;;3.10;;
71800;SDS011;59647;55.838;37.292;2023-11-21T00:49:12;7.53;;;2.60;;
71800;SDS011;59647;55.838;37.292;2023-11-21T00:51:38;11.37;;;3.60;;
71800;SDS011;59647;55.838;37.292;2023-11-21T00:54:04;6.00;;;2.80;;
71800;SDS011;59647;55.838;37.292;2023-11-21T00:56:32;5.97;;;3.10;;
71800;SDS011;59647;55.838;37.292;2023-11-21T00:58:59;8.03;;;3.10;;
71800;SDS011;59647;55.838;37.292;2023-11-21T01:01:25;2.90;;;1.57;;
71800;SDS011;59647;55.838;37.292;2023-11-21T01:03:52;5.60;;;3.17;;
71800;SDS011;59647;55.838;37.292;2023-11-21T01:06:19;8.80;;;2.90;;
71800;SDS011;59647;55.838;37.292;2023-11-21T01:08:45;5.83;;;2.47;;
71800;SDS011;59647;55.838;37.292;2023-11-21T01:11:11;9.67;;;2.37;;
71800;SDS011;59647;55.838;37.292;2023-11-21T01:13:41;6.80;;;2.80;;
71800;SDS011;59647;55.838;37.292;2023-11-21T01:16:11;3.43;;;1.90;;
71800;SDS011;59647;55.838;37.292;2023-11-21T01:18:38;6.63;;;2.57;;
71800;SDS011;59647;55.838;37.292;2023-11-21T01:21:10;3.07;;;1.93;;
71800;SDS011;59647;55.838;37.292;2023-11-21T01:23:36;11.40;;;2.40;;
71800;SDS011;59647;55.838;37.292;2023-11-21T01:26:03;6.53;;;3.30;;
71800;SDS011;59647;55.838;37.292;2023-11-21T01:28:36;4.82;;;2.53;;
71800;SDS011;59647;55.838;37.292;2023-11-21T01:31:02;5.93;;;1.80;;
71800;SDS011;59647;55.838;37.292;2023-11-21T01:33:28;3.57;;;1.90;;
71800;SDS011;59647;55.838;37.292;2023-11-21T01:35:54;3.10;;;1.40;;
71800;SDS011;59647;55.838;37.292;2023-11-21T01:38:20;7.67;;;2.23;;
71800;SDS011;59647;55.838;37.292;2023-11-21T01:40:47;3.70;;;1.90;;
71800;SDS011;59647;55.838;37.292;2023-11-21T01:43:13;6.33;;;2.70;;
71800;SDS011;59647;55.838;37.292;2023-11-21T01:45:39;2.93;;;1.73;;
71800;SDS011;59647;55.838;37.292;2023-11-21T01:48:06;4.90;;;2.37;;
71800;SDS011;59647;55.838;37.292;2023-11-21T01:50:35;7.23;;;1.93;;
71800;SDS011;59647;55.838;37.292;2023-11-21T01:53:02;7.77;;;2.80;;
71800;SDS011;59647;55.838;37.292;2023-11-21T01:55:29;5.37;;;2.63;;
71800;SDS011;59647;55.838;37.292;2023-11-21T01:57:56;4.97;;;1.60;;
71800;SDS011;59647;55.838;37.292;2023-11-21T02:00:25;5.93;;;2.37;;
71800;SDS011;59647;55.838;37.292;2023-11-21T02:02:55;5.60;;;2.00;;
71800;SDS011;59647;55.838;37.292;2023-11-21T02:05:32;7.50;;;2.43;;
71800;SDS011;59647;55.838;37.292;2023-11-21T02:08:03;1.77;;;1.35;;
71800;SDS011;59647;55.838;37.292;2023-11-21T02:10:30;9.37;;;2.40;;
71800;SDS011;59647;55.838;37.292;2023-11-21T02:12:58;5.67;;;2.13;;
71800;SDS011;59647;55.838;37.292;2023-11-21T02:15:30;4.20;;;2.17;;
71800;SDS011;59647;55.838;37.292;2023-11-21T02:17:57;5.43;;;1.30;;
71800;SDS011;59647;55.838;37.292;2023-11-21T02:20:24;3.80;;;2.27;;
71800;SDS011;59647;55.838;37.292;2023-11-21T02:22:52;2.37;;;1.53;;
71800;SDS011;59647;55.838;37.292;2023-11-21T02:25:24;3.90;;;1.63;;
71800;SDS011;59647;55.838;37.292;2023-11-21T02:27:51;5.40;;;2.60;;
71800;SDS011;59647;55.838;37.292;2023-11-21T02:30:17;2.17;;;1.20;;
71800;SDS011;59647;55.838;37.292;2023-11-21T02:32:44;7.13;;;3.00;;
71800;SDS011;59647;55.838;37.292;2023-11-21T02:35:12;3.90;;;1.63;;
71800;SDS011;59647;55.838;37.292;2023-11-21T02:37:38;3.97;;;1.87;;
71800;SDS011;59647;55.838;37.292;2023-11-21T02:40:09;3.60;;;2.00;;
71800;SDS011;59647;55.838;37.292;2023-11-21T02:42:40;4.83;;;1.90;;
71800;SDS011;59647;55.838;37.292;2023-11-21T02:45:10;1.77;;;1.20;;
71800;SDS011;59647;55.838;37.292;2023-11-21T02:47:38;5.03;;;2.60;;
71800;SDS011;59647;55.838;37.292;2023-11-21T02:50:04;2.93;;;1.43;;
71800;SDS011;59647;55.838;37.292;2023-11-21T02:52:33;7.23;;;2.43;;
71800;SDS011;59647;55.838;37.292;2023-11-21T02:55:09;4.37;;;1.97;;
71800;SDS011;59647;55.838;37.292;2023-11-21T02:57:35;3.97;;;2.13;;
71800;SDS011;59647;55.838;37.292;2023-11-21T03:00:06;5.03;;;2.23;;
71800;SDS011;59647;55.838;37.292;2023-11-21T03:02:40;3.40;;;1.77;;
71800;SDS011;59647;55.838;37.292;2023-11-21T03:05:37;5.67;;;2.67;;
71800;SDS011;59647;55.838;37.292;2023-11-21T03:08:04;5.33;;;2.50;;
71800;SDS011;59647;55.838;37.292;2023-11-21T03:10:30;2.43;;;1.87;;
71800;SDS011;59647;55.838;37.292;2023-11-21T03:12:56;6.27;;;2.70;;
71800;SDS011;59647;55.838;37.292;2023-11-21T03:15:23;8.70;;;2.60;;
71800;SDS011;59647;55.838;37.292;2023-11-21T03:17:48;7.30;;;3.50;;
71800;SDS011;59647;55.838;37.292;2023-11-21T03:20:14;11.33;;;1.87;;
71800;SDS011;59647;55.838;37.292;2023-11-21T03:22:41;4.23;;;2.90;;
71800;SDS011;59647;55.838;37.292;2023-11-21T03:25:13;5.07;;;1.80;;
71800;SDS011;59647;55.838;37.292;2023-11-21T03:27:47;7.57;;;2.93;;
71800;SDS011;59647;55.838;37.292;2023-11-21T03:30:17;6.77;;;3.40;;
71800;SDS011;59647;55.838;37.292;2023-11-21T03:32:43;2.60;;;1.43;;
71800;SDS011;59647;55.838;37.292;2023-11-21T03:35:09;4.37;;;2.40;;
71800;SDS011;59647;55.838;37.292;2023-11-21T03:37:36;6.27;;;2.20;;
71800;SDS011;59647;55.838;37.292;2023-11-21T03:40:03;3.27;;;2.10;;
71800;SDS011;59647;55.838;37.292;2023-11-21T03:42:30;1.90;;;0.87;;
71800;SDS011;59647;55.838;37.292;2023-11-21T03:44:56;4.07;;;2.03;;
71800;SDS011;59647;55.838;37.292;2023-11-21T03:47:23;4.97;;;2.67;;
71800;SDS011;59647;55.838;37.292;2023-11-21T03:49:49;2.83;;;1.73;;
71800;SDS011;59647;55.838;37.292;2023-11-21T03:52:16;6.80;;;2.37;;
71800;SDS011;59647;55.838;37.292;2023-11-21T03:54:45;6.53;;;2.63;;
71800;SDS011;59647;55.838;37.292;2023-11-21T03:57:11;6.50;;;2.83;;
71800;SDS011;59647;55.838;37.292;2023-11-21T03:59:41;3.97;;;2.03;;
71800;SDS011;59647;55.838;37.292;2023-11-21T04:02:08;4.10;;;1.43;;
71800;SDS011;59647;55.838;37.292;2023-11-21T04:04:35;4.17;;;1.53;;
71800;SDS011;59647;55.838;37.292;2023-11-21T04:07:01;7.20;;;2.77;;
71800;SDS011;59647;55.838;37.292;2023-11-21T04:09:28;4.80;;;2.17;;
71800;SDS011;59647;55.838;37.292;2023-11-21T04:11:54;6.87;;;2.40;;
71800;SDS011;59647;55.838;37.292;2023-11-21T04:14:21;5.80;;;2.60;;
71800;SDS011;59647;55.838;37.292;2023-11-21T04:16:49;3.20;;;1.67;;
71800;SDS011;59647;55.838;37.292;2023-11-21T04:19:15;3.00;;;1.83;;
71800;SDS011;59647;55.838;37.292;2023-11-21T04:21:46;2.37;;;1.47;;
71800;SDS011;59647;55.838;37.292;2023-11-21T04:24:20;4.13;;;2.13;;
71800;SDS011;59647;55.838;37.292;2023-11-21T04:26:46;5.03;;;2.33;;
71800;SDS011;59647;55.838;37.292;2023-11-21T04:29:12;5.27;;;2.20;;
71800;SDS011;59647;55.838;37.292;2023-11-21T04:31:38;7.67;;;3.60;;
71800;SDS011;59647;55.838;37.292;2023-11-21T04:34:04;3.50;;;2.20;;
71800;SDS011;59647;55.838;37.292;2023-11-21T04:36:30;6.20;;;2.27;;
71800;SDS011;59647;55.838;37.292;2023-11-21T04:38:56;3.27;;;1.80;;
71800;SDS011;59647;55.838;37.292;2023-11-21T04:41:25;6.47;;;2.40;;
71800;SDS011;59647;55.838;37.292;2023-11-21T04:43:51;3.33;;;1.67;;
71800;SDS011;59647;55.838;37.292;2023-11-21T04:46:20;6.37;;;2.40;;
71800;SDS011;59647;55.838;37.292;2023-11-21T04:48:47;2.80;;;1.33;;
71800;SDS011;59647;55.838;37.292;2023-11-21T04:51:12;4.87;;;2.30;;
71800;SDS011;59647;55.838;37.292;2023-11-21T04:53:38;3.43;;;1.83;;
71800;SDS011;59647;55.838;37.292;2023-11-21T04:56:05;6.93;;;2.60;;
71800;SDS011;59647;55.838;37.292;2023-11-21T04:58:31;5.30;;;2.07;;
71800;SDS011;59647;55.838;37.292;2023-11-21T05:00:58;2.60;;;1.90;;
71800;SDS011;59647;55.838;37.292;2023-11-21T05:03:24;5.43;;;2.43;;
71800;SDS011;59647;55.838;37.292;2023-11-21T05:05:51;6.70;;;2.17;;
71800;SDS011;59647;55.838;37.292;2023-11-21T05:08:17;7.30;;;2.93;;
71800;SDS011;59647;55.838;37.292;2023-11-21T05:10:46;2.63;;;1.37;;
71800;SDS011;59647;55.838;37.292;2023-11-21T05:13:12;3.20;;;1.57;;
71800;SDS011;59647;55.838;37.292;2023-11-21T05:15:38;4.90;;;1.63;;
71800;SDS011;59647;55.838;37.292;2023-11-21T05:18:04;6.33;;;3.23;;
71800;SDS011;59647;55.838;37.292;2023-11-21T05:20:30;7.47;;;2.50;;
71800;SDS011;59647;55.838;37.292;2023-11-21T05:22:56;4.47;;;2.23;;
71800;SDS011;59647;55.838;37.292;2023-11-21T05:25:25;4.73;;;1.73;;
71800;SDS011;59647;55.838;37.292;2023-11-21T05:27:57;8.87;;;2.30;;
71800;SDS011;59647;55.838;37.292;2023-11-21T05:30:38;8.20;;;3.07;;
71800;SDS011;59647;55.838;37.292;2023-11-21T05:33:11;3.87;;;1.77;;
71800;SDS011;59647;55.838;37.292;2023-11-21T05:35:36;6.20;;;2.13;;
71800;SDS011;59647;55.838;37.292;2023-11-21T05:38:05;5.87;;;2.30;;
71800;SDS011;59647;55.838;37.292;2023-11-21T05:40:31;4.60;;;2.17;;
71800;SDS011;59647;55.838;37.292;2023-11-21T05:42:57;5.77;;;2.30;;
71800;SDS011;59647;55.838;37.292;2023-11-21T05:45:23;2.37;;;1.50;;
71800;SDS011;59647;55.838;37.292;2023-11-21T05:47:49;3.70;;;1.70;;
71800;SDS011;59647;55.838;37.292;2023-11-21T05:50:16;4.00;;;1.80;;
71800;SDS011;59647;55.838;37.292;2023-11-21T05:52:44;4.77;;;2.47;;
71800;SDS011;59647;55.838;37.292;2023-11-21T05:55:12;6.97;;;2.93;;
71800;SDS011;59647;55.838;37.292;2023-11-21T05:57:39;9.07;;;1.67;;
71800;SDS011;59647;55.838;37.292;2023-11-21T06:00:15;3.67;;;1.30;;
71800;SDS011;59647;55.838;37.292;2023-11-21T06:02:51;4.93;;;2.07;;
71800;SDS011;59647;55.838;37.292;2023-11-21T06:05:20;2.73;;;1.60;;
71800;SDS011;59647;55.838;37.292;2023-11-21T06:07:54;4.70;;;1.90;;
71800;SDS011;59647;55.838;37.292;2023-11-21T06:10:25;5.15;;;2.53;;
71800;SDS011;59647;55.838;37.292;2023-11-21T06:12:52;4.93;;;2.13;;
71800;SDS011;59647;55.838;37.292;2023-11-21T06:15:24;7.83;;;3.27;;
71800;SDS011;59647;55.838;37.292;2023-11-21T06:17:51;4.20;;;2.20;;
71800;SDS011;59647;55.838;37.292;2023-11-21T06:20:26;7.00;;;2.80;;
71800;SDS011;59647;55.838;37.292;2023-11-21T06:22:53;7.03;;;2.50;;
71800;SDS011;59647;55.838;37.292;2023-11-21T06:25:37;1.47;;;0.70;;
71800;SDS011;59647;55.838;37.292;2023-11-21T06:28:04;4.47;;;2.63;;
71800;SDS011;59647;55.838;37.292;2023-11-21T06:30:30;5.80;;;2.20;;
71800;SDS011;59647;55.838;37.292;2023-11-21T06:32:56;5.70;;;2.20;;
71800;SDS011;59647;55.838;37.292;2023-11-21T06:35:22;5.57;;;3.10;;
71800;SDS011;59647;55.838;37.292;2023-11-21T06:37:48;3.27;;;2.13;;
71800;SDS011;59647;55.838;37.292;2023-11-21T06:40:14;7.00;;;3.03;;
71800;SDS011;59647;55.838;37.292;2023-11-21T06:42:47;7.00;;;2.03;;
71800;SDS011;59647;55.838;37.292;2023-11-21T06:45:22;3.80;;;1.67;;
71800;SDS011;59647;55.838;37.292;2023-11-21T06:47:48;3.67;;;1.73;;
71800;SDS011;59647;55.838;37.292;2023-11-21T06:50:14;4.63;;;2.53;;
71800;SDS011;59647;55.838;37.292;2023-11-21T06:52:40;3.57;;;2.07;;
71800;SDS011;59647;55.838;37.292;2023-11-21T06:55:06;3.70;;;2.33;;
71800;SDS011;59647;55.838;37.292;2023-11-21T06:57:36;3.97;;;2.13;;
71800;SDS011;59647;55.838;37.292;2023-11-21T07:00:04;7.47;;;2.43;;
71800;SDS011;59647;55.838;37.292;2023-11-21T07:02:32;5.23;;;2.73;;
71800;SDS011;59647;55.838;37.292;2023-11-21T07:04:58;7.40;;;3.77;;
71800;SDS011;59647;55.838;37.292;2023-11-21T07:07:24;3.83;;;2.00;;
71800;SDS011;59647;55.838;37.292;2023-11-21T07:09:51;3.97;;;1.93;;
71800;SDS011;59647;55.838;37.292;2023-11-21T07:12:17;8.43;;;3.07;;
71800;SDS011;59647;55.838;37.292;2023-11-21T07:14:43;10.97;;;2.10;;
71800;SDS011;59647;55.838;37.292;2023-11-21T07:17:10;8.47;;;2.30;;
71800;SDS011;59647;55.838;37.292;2023-11-21T07:19:40;9.40;;;2.93;;
71800;SDS011;59647;55.838;37.292;2023-11-21T07:22:07;4.50;;;2.10;;
71800;SDS011;59647;55.838;37.292;2023-11-21T07:24:33;7.47;;;2.80;;
71800;SDS011;59647;55.838;37.292;2023-11-21T07:27:00;6.17;;;2.87;;
71800;SDS011;59647;55.838;37.292;2023-11-21T07:29:26;7.27;;;3.50;;
71800;SDS011;59647;55.838;37.292;2023-11-21T07:31:52;17.13;;;4.93;;
71800;SDS011;59647;55.838;37.292;2023-11-21T07:34:22;12.27;;;4.57;;
71800;SDS011;59647;55.838;37.292;2023-11-21T07:36:48;14.33;;;3.73;;
71800;SDS011;59647;55.838;37.292;2023-11-21T07:39:14;5.83;;;2.70;;
71800;SDS011;59647;55.838;37.292;2023-11-21T07:41:44;5.27;;;2.47;;
71800;SDS011;59647;55.838;37.292;2023-11-21T07:44:18;3.85;;;2.28;;
71800;SDS011;59647;55.838;37.292;2023-11-21T07:46:46;2.37;;;1.50;;
71800;SDS011;59647;55.838;37.292;2023-11-21T07:49:12;5.87;;;1.63;;
71800;SDS011;59647;55.838;37.292;2023-11-21T07:51:43;7.37;;;2.33;;
71800;SDS011;59647;55.838;37.292;2023-11-21T07:54:09;3.10;;;1.40;;
71800;SDS011;59647;55.838;37.292;2023-11-21T07:56:41;4.10;;;1.87;;
71800;SDS011;59647;55.838;37.292;2023-11-21T07:59:08;6.50;;;3.23;;
71800;SDS011;59647;55.838;37.292;2023-11-21T08:01:33;7.13;;;3.40;;
71800;SDS011;59647;55.838;37.292;2023-11-21T08:04:00;4.33;;;2.53;;
71800;SDS011;59647;55.838;37.292;2023-11-21T08:06:35;4.13;;;2.13;;
71800;SDS011;59647;55.838;37.292;2023-11-21T08:09:01;6.90;;;2.63;;
71800;SDS011;59647;55.838;37.292;2023-11-21T08:11:27;8.37;;;2.67;;
71800;SDS011;59647;55.838;37.292;2023-11-21T08:13:57;8.03;;;2.50;;
71800;SDS011;59647;55.838;37.292;2023-11-21T08:16:24;7.47;;;2.90;;
71800;SDS011;59647;55.838;37.292;2023-11-21T08:18:50;6.83;;;3.07;;
71800;SDS011;59647;55.838;37.292;2023-11-21T08:21:16;5.53;;;2.53;;
71800;SDS011;59647;55.838;37.292;2023-11-21T08:23:45;7.97;;;3.37;;
71800;SDS011;59647;55.838;37.292;2023-11-21T08:26:19;6.60;;;1.97;;
71800;SDS011;59647;55.838;37.292;2023-11-21T08:28:45;6.17;;;3.27;;
71800;SDS011;59647;55.838;37.292;2023-11-21T08:31:12;7.17;;;3.03;;
71800;SDS011;59647;55.838;37.292;2023-11-21T08:33:39;12.63;;;3.80;;
71800;SDS011;59647;55.838;37.292;2023-11-21T08:36:08;7.80;;;3.60;;
71800;SDS011;59647;55.838;37.292;2023-11-21T08:38:36;7.20;;;3.57;;
71800;SDS011;59647;55.838;37.292;2023-11-21T08:41:06;16.07;;;4.43;;
71800;SDS011;59647;55.838;37.292;2023-11-21T08:43:34;12.63;;;5.33;;
71800;SDS011;59647;55.838;37.292;2023-11-21T08:46:04;11.23;;;4.53;;
71800;SDS011;59647;55.838;37.292;2023-11-21T08:48:31;5.13;;;3.23;;
71800;SDS011;59647;55.838;37.292;2023-11-21T08:51:03;4.20;;;2.03;;
71800;SDS011;59647;55.838;37.292;2023-11-21T08:53:30;4.77;;;2.27;;
71800;SDS011;59647;55.838;37.292;2023-11-21T08:55:59;4.73;;;2.57;;
71800;SDS011;59647;55.838;37.292;2023-11-21T08:58:28;6.80;;;2.60;;
71800;SDS011;59647;55.838;37.292;2023-11-21T09:00:53;6.20;;;2.53;;
71800;SDS011;59647;55.838;37.292;2023-11-21T09:03:19;14.80;;;4.47;;
71800;SDS011;59647;55.838;37.292;2023-11-21T09:05:45;6.07;;;2.33;;
71800;SDS011;59647;55.838;37.292;2023-11-21T09:08:11;5.00;;;2.30;;
71800;SDS011;59647;55.838;37.292;2023-11-21T09:10:37;5.00;;;2.27;;
71800;SDS011;59647;55.838;37.292;2023-11-21T09:13:05;5.60;;;2.80;;
71800;SDS011;59647;55.838;37.292;2023-11-21T09:15:31;2.97;;;1.67;;
71800;SDS011;59647;55.838;37.292;2023-11-21T09:17:57;4.50;;;2.17;;
71800;SDS011;59647;55.838;37.292;2023-11-21T09:20:28;4.40;;;1.60;;
71800;SDS011;59647;55.838;37.292;2023-11-21T09:23:03;3.80;;;2.33;;
71800;SDS011;59647;55.838;37.292;2023-11-21T09:25:29;3.47;;;2.00;;
71800;SDS011;59647;55.838;37.292;2023-11-21T09:27:55;4.83;;;1.63;;
71800;SDS011;59647;55.838;37.292;2023-11-21T09:30:22;3.17;;;1.33;;
71800;SDS011;59647;55.838;37.292;2023-11-21T09:32:51;3.60;;;1.50;;
71800;SDS011;59647;55.838;37.292;2023-11-21T09:35:20;3.23;;;1.63;;
71800;SDS011;59647;55.838;37.292;2023-11-21T09:37:46;3.17;;;1.73;;
71800;SDS011;59647;55.838;37.292;2023-11-21T09:40:12;2.53;;;1.23;;
71800;SDS011;59647;55.838;37.292;2023-11-21T09:45:26;1.43;;;0.90;;
71800;SDS011;59647;55.838;37.292;2023-11-21T09:47:59;17.58;;;2.08;;
71800;SDS011;59647;55.838;37.292;2023-11-21T09:50:25;6.77;;;2.47;;
71800;SDS011;59647;55.838;37.292;2023-11-21T09:55:47;4.13;;;1.93;;
71800;SDS011;59647;55.838;37.292;2023-11-21T09:58:14;1.97;;;1.10;;
71800;SDS011;59647;55.838;37.292;2023-11-21T10:00:44;3.77;;;1.63;;
71800;SDS011;59647;55.838;37.292;2023-11-21T10:03:11;2.97;;;1.50;;
71800;SDS011;59647;55.838;37.292;2023-11-21T10:05:38;11.57;;;2.40;;
71800;SDS011;59647;55.838;37.292;2023-11-21T10:08:07;4.47;;;2.13;;
71800;SDS011;59647;55.838;37.292;2023-11-21T10:10:37;3.53;;;1.60;;
71800;SDS011;59647;55.838;37.292;2023-11-21T10:13:11;4.27;;;1.70;;
71800;SDS011;59647;55.838;37.292;2023-11-21T10:15:38;2.77;;;1.43;;
71800;SDS011;59647;55.838;37.292;2023-11-21T10:18:05;2.73;;;1.30;;
71800;SDS011;59647;55.838;37.292;2023-11-21T10:20:33;4.00;;;2.23;;
71800;SDS011;59647;55.838;37.292;2023-11-21T10:23:00;3.13;;;2.00;;
71800;SDS011;59647;55.838;37.292;2023-11-21T10:25:30;6.60;;;2.33;;
71800;SDS011;59647;55.838;37.292;2023-11-21T10:28:01;2.77;;;1.93;;
71800;SDS011;59647;55.838;37.292;2023-11-21T10:30:39;3.22;;;1.67;;
71800;SDS011;59647;55.838;37.292;2023-11-21T10:33:06;4.13;;;1.77;;
71800;SDS011;59647;55.838;37.292;2023-11-21T10:35:42;6.40;;;2.33;;
71800;SDS011;59647;55.838;37.292;2023-11-21T10:38:21;5.73;;;2.17;;
71800;SDS011;59647;55.838;37.292;2023-11-21T10:40:49;3.67;;;1.80;;
71800;SDS011;59647;55.838;37.292;2023-11-21T10:43:16;3.07;;;1.70;;
71800;SDS011;59647;55.838;37.292;2023-11-21T10:45:43;7.47;;;2.40;;
71800;SDS011;59647;55.838;37.292;2023-11-21T10:48:10;16.30;;;2.97;;
71800;SDS011;59647;55.838;37.292;2023-11-21T10:50:43;5.67;;;2.80;;
71800;SDS011;59647;55.838;37.292;2023-11-21T10:53:10;4.00;;;1.93;;
71800;SDS011;59647;55.838;37.292;2023-11-21T10:55:39;7.60;;;2.70;;
71800;SDS011;59647;55.838;37.292;2023-11-21T10:58:05;6.33;;;1.70;;
71800;SDS011;59647;55.838;37.292;2023-11-21T11:00:32;4.97;;;1.93;;
71800;SDS011;59647;55.838;37.292;2023-11-21T11:02:59;5.40;;;2.07;;
71800;SDS011;59647;55.838;37.292;2023-11-21T11:05:26;6.20;;;2.30;;
71800;SDS011;59647;55.838;37.292;2023-11-21T11:07:58;4.67;;;1.90;;
71800;SDS011;59647;55.838;37.292;2023-11-21T11:10:28;7.23;;;2.50;;
71800;SDS011;59647;55.838;37.292;2023-11-21T11:12:57;5.40;;;2.57;;
71800;SDS011;59647;55.838;37.292;2023-11-21T11:15:24;3.63;;;1.47;;
71800;SDS011;59647;55.838;37.292;2023-11-21T11:17:51;5.63;;;2.90;;
71800;SDS011;59647;55.838;37.292;2023-11-21T11:20:17;7.27;;;2.73;;
71800;SDS011;59647;55.838;37.292;2023-11-21T11:22:56;2.43;;;1.40;;
71800;SDS011;59647;55.838;37.292;2023-11-21T11:25:38;4.50;;;1.93;;
71800;SDS011;59647;55.838;37.292;2023-11-21T11:28:10;4.30;;;1.95;;
71800;SDS011;59647;55.838;37.292;2023-11-21T11:39:38;2.43;;;1.57;;
71800;SDS011;59647;55.838;37.292;2023-11-21T11:42:14;5.73;;;2.87;;
71800;SDS011;59647;55.838;37.292;2023-11-21T11:47:28;7.10;;;3.00;;
71800;SDS011;59647;55.838;37.292;2023-11-21T11:52:46;7.20;;;2.83;;
71800;SDS011;59647;55.838;37.292;2023-11-21T11:55:17;8.70;;;3.23;;
71800;SDS011;59647;55.838;37.292;2023-11-21T11:57:49;4.20;;;2.53;;
71800;SDS011;59647;55.838;37.292;2023-11-21T12:02:55;14.30;;;3.03;;
71800;SDS011;59647;55.838;37.292;2023-11-21T12:05:22;6.30;;;2.23;;
71800;SDS011;59647;55.838;37.292;2023-11-21T12:07:52;14.27;;;2.70;;
71800;SDS011;59647;55.838;37.292;2023-11-21T12:10:21;6.27;;;2.33;;
71800;SDS011;59647;55.838;37.292;2023-11-21T12:12:51;5.10;;;2.80;;
71800;SDS011;59647;55.838;37.292;2023-11-21T12:15:19;8.17;;;3.20;;
71800;SDS011;59647;55.838;37.292;2023-11-21T12:17:47;10.97;;;4.00;;
71800;SDS011;59647;55.838;37.292;2023-11-21T12:20:15;6.40;;;3.13;;
71800;SDS011;59647;55.838;37.292;2023-11-21T12:22:45;4.33;;;2.43;;
71800;SDS011;59647;55.838;37.292;2023-11-21T12:25:15;9.10;;;3.30;;
71800;SDS011;59647;55.838;37.292;2023-11-21T12:27:53;11.57;;;3.17;;
71800;SDS011;59647;55.838;37.292;2023-11-21T12:30:20;8.53;;;2.80;;
71800;SDS011;59647;55.838;37.292;2023-11-21T12:32:48;6.17;;;2.77;;
71800;SDS011;59647;55.838;37.292;2023-11-21T12:35:17;6.37;;;2.77;;
71800;SDS011;59647;55.838;37.292;2023-11-21T12:37:45;13.93;;;2.97;;
71800;SDS011;59647;55.838;37.292;2023-11-21T12:40:14;4.87;;;2.47;;
71800;SDS011;59647;55.838;37.292;2023-11-21T12:42:41;8.87;;;2.90;;
71800;SDS011;59647;55.838;37.292;2023-11-21T12:45:09;4.37;;;2.27;;
71800;SDS011;59647;55.838;37.292;2023-11-21T12:47:43;12.43;;;2.70;;
71800;SDS011;59647;55.838;37.292;2023-11-21T12:50:13;5.90;;;3.13;;
71800;SDS011;59647;55.838;37.292;2023-11-21T12:52:42;4.10;;;2.13;;
71800;SDS011;59647;55.838;37.292;2023-11-21T12:55:13;5.87;;;2.27;;
71800;SDS011;59647;55.838;37.292;2023-11-21T12:57:49;5.50;;;1.90;;
71800;SDS011;59647;55.838;37.292;2023-11-21T13:00:33;9.90;;;3.13;;
71800;SDS011;59647;55.838;37.292;2023-11-21T13:03:08;10.63;;;2.58;;
71800;SDS011;59647;55.838;37.292;2023-11-21T13:05:38;9.80;;;3.87;;
71800;SDS011;59647;55.838;37.292;2023-11-21T13:08:08;5.40;;;2.87;;
71800;SDS011;59647;55.838;37.292;2023-11-21T13:10:37;10.33;;;3.40;;
71800;SDS011;59647;55.838;37.292;2023-11-21T13:13:06;8.60;;;2.90;;
71800;SDS011;59647;55.838;37.292;2023-11-21T13:15:34;5.60;;;3.43;;
71800;SDS011;59647;55.838;37.292;2023-11-21T13:18:04;7.70;;;3.00;;
71800;SDS011;59647;55.838;37.292;2023-11-21T13:20:30;5.47;;;2.50;;
71800;SDS011;59647;55.838;37.292;2023-11-21T13:22:57;6.97;;;3.23;;
71800;SDS011;59647;55.838;37.292;2023-11-21T13:25:29;17.43;;;3.97;;
71800;SDS011;59647;55.838;37.292;2023-11-21T13:27:58;7.63;;;3.40;;
71800;SDS011;59647;55.838;37.292;2023-11-21T13:30:25;6.83;;;3.40;;
71800;SDS011;59647;55.838;37.292;2023-11-21T13:33:02;5.43;;;2.57;;
71800;SDS011;59647;55.838;37.292;2023-11-21T13:35:34;8.07;;;3.00;;
71800;SDS011;59647;55.838;37.292;2023-11-21T13:38:10;6.80;;;4.03;;
71800;SDS011;59647;55.838;37.292;2023-11-21T13:40:38;9.50;;;3.40;;
71800;SDS011;59647;55.838;37.292;2023-11-21T13:43:18;8.07;;;4.20;;
71800;SDS011;59647;55.838;37.292;2023-11-21T13:45:51;8.43;;;3.47;;
71800;SDS011;59647;55.838;37.292;2023-11-21T13:48:26;6.13;;;3.17;;
71800;SDS011;59647;55.838;37.292;2023-11-21T13:51:06;6.33;;;3.10;;
71800;SDS011;59647;55.838;37.292;2023-11-21T13:53:44;6.90;;;3.40;;
71800;SDS011;59647;55.838;37.292;2023-11-21T13:56:13;9.47;;;3.87;;
71800;SDS011;59647;55.838;37.292;2023-11-21T13:58:45;8.13;;;3.47;;
71800;SDS011;59647;55.838;37.292;2023-11-21T14:01:19;7.60;;;3.88;;
71800;SDS011;59647;55.838;37.292;2023-11-21T14:03:59;7.47;;;3.03;;
71800;SDS011;59647;55.838;37.292;2023-11-21T14:06:46;7.93;;;2.80;;
71800;SDS011;59647;55.838;37.292;2023-11-21T14:09:17;12.93;;;3.53;;
71800;SDS011;59647;55.838;37.292;2023-11-21T14:11:55;9.40;;;3.50;;
71800;SDS011;59647;55.838;37.292;2023-11-21T14:14:26;8.40;;;3.10;;
71800;SDS011;59647;55.838;37.292;2023-11-21T14:16:53;10.33;;;4.30;;
71800;SDS011;59647;55.838;37.292;2023-11-21T14:19:21;9.73;;;3.77;;
71800;SDS011;59647;55.838;37.292;2023-11-21T14:21:52;23.17;;;7.70;;
71800;SDS011;59647;55.838;37.292;2023-11-21T14:24:18;21.30;;;8.13;;
71800;SDS011;59647;55.838;37.292;2023-11-21T14:26:45;23.83;;;7.90;;
71800;SDS011;59647;55.838;37.292;2023-11-21T14:29:15;19.57;;;8.17;;
71800;SDS011;59647;55.838;37.292;2023-11-21T14:31:46;19.05;;;7.80;;
71800;SDS011;59647;55.838;37.292;2023-11-21T14:34:15;10.83;;;4.07;;
71800;SDS011;59647;55.838;37.292;2023-11-21T14:36:42;9.27;;;3.83;;
71800;SDS011;59647;55.838;37.292;2023-11-21T14:39:09;12.13;;;4.47;;
71800;SDS011;59647;55.838;37.292;2023-11-21T14:41:46;8.07;;;3.07;;
71800;SDS011;59647;55.838;37.292;2023-11-21T14:44:11;11.27;;;3.77;;
71800;SDS011;59647;55.838;37.292;2023-11-21T14:46:39;6.67;;;3.53;;
71800;SDS011;59647;55.838;37.292;2023-11-21T14:49:09;11.43;;;3.47;;
71800;SDS011;59647;55.838;37.292;2023-11-21T14:51:48;5.90;;;3.43;;
71800;SDS011;59647;55.838;37.292;2023-11-21T14:54:19;8.73;;;3.27;;
71800;SDS011;59647;55.838;37.292;2023-11-21T14:57:00;8.30;;;3.67;;
71800;SDS011;59647;55.838;37.292;2023-11-21T14:59:26;7.40;;;3.47;;
71800;SDS011;59647;55.838;37.292;2023-11-21T15:01:52;6.13;;;2.67;;
71800;SDS011;59647;55.838;37.292;2023-11-21T15:04:21;5.63;;;2.60;;